Time;durP1;ratioP1;P1;durP2;ratioP2;P2;SDS_P1;SDS_P2;PMS_P1;PMS_P2;Temp;Humidity;BMP_temperature;BMP_pressure;BME280_temperature;BME280_humidity;BME280_pressure;Samples;Min_cycle;Max_cycle;Signal;HPM_P1;HPM_P2
2021/07/02 04:22:17;;;;;;;2.97;1.50;;;;;;;20.72;52.31;100281.19;5321857;26;20091;-85
2021/07/02 04:24:46;;;;;;;5.62;1.80;;;;;;;21.74;48.92;100283.06;5300666;27;20052;-85
2021/07/02 04:27:14;;;;;;;3.65;1.80;;;;;;;21.38;51.03;100285.84;5300364;27;20071;-82
2021/07/02 04:29:42;;;;;;;3.28;1.50;;;;;;;21.37;50.87;100283.28;5320517;27;20106;-85
2021/07/02 04:32:09;;;;;;;5.53;1.73;;;;;;;21.24;51.97;100289.22;5319904;27;20090;-83
2021/07/02 04:34:46;;;;;;;5.05;1.92;;;;;;;20.77;53.45;100286.31;5319335;27;20057;-83
2021/07/02 04:37:12;;;;;;;2.97;1.33;;;;;;;21.04;53.26;100282.22;5319580;27;20056;-83
2021/07/02 04:39:39;;;;;;;8.30;1.65;;;;;;;22.03;51.74;100272.59;5319313;27;20118;-84
2021/07/02 04:42:15;;;;;;;1.83;1.30;;;;;;;22.45;50.30;100273.81;5299558;27;20118;-84
2021/07/02 04:44:42;;;;;;;4.70;1.50;;;;;;;23.10;47.95;100268.28;5319523;27;20057;-84
2021/07/02 04:47:09;;;;;;;3.80;1.65;;;;;;;23.20;47.52;100272.09;5319405;27;20065;-83
2021/07/02 04:50:07;;;;;;;3.62;1.30;;;;;;;23.51;47.29;100275.63;5319258;27;20125;-83
2021/07/02 04:52:34;;;;;;;5.70;2.20;;;;;;;24.47;45.83;100279.41;5301143;27;20075;-83
2021/07/02 04:55:04;;;;;;;2.25;1.08;;;;;;;25.93;43.04;100272.16;5320845;27;20057;-84
2021/07/02 04:57:30;;;;;;;1.67;0.75;;;;;;;26.14;41.68;100272.44;5300560;27;20124;-85
2021/07/02 05:00:00;;;;;;;1.40;0.40;;;;;;;26.01;39.90;100269.78;5320348;27;20075;-84
2021/07/02 05:54:12;;;;;;;2.17;1.00;;;;;;;26.96;37.78;100277.06;5349359;26;20061;-87
2021/07/02 05:56:59;;;;;;;3.62;1.23;;;;;;;27.87;37.93;100288.13;5343921;26;20056;-84
2021/07/02 06:00:34;;;;;;;6.90;1.65;;;;;;;28.20;35.11;100279.97;5342484;26;20143;-85
2021/07/02 06:02:43;;;;;;;2.85;0.98;;;;;;;28.27;35.78;100286.62;5337398;26;20120;-85
2021/07/02 11:01:07;;;;;;;4.00;2.22;;;;;;;28.55;30.67;100311.41;5330671;26;20061;-84
2021/07/02 11:04:30;;;;;;;10.23;3.15;;;;;;;28.05;31.50;100305.53;5336560;26;20062;-84
2021/07/02 11:06:59;;;;;;;3.67;2.67;;;;;;;28.96;30.36;100304.38;5334783;26;20061;-84
2021/07/02 11:09:50;;;;;;;6.78;2.75;;;;;;;29.20;29.18;100296.91;5351191;26;20072;-85
2021/07/02 11:12:22;;;;;;;5.05;2.15;;;;;;;28.96;29.37;100296.28;5349741;26;20033;-84
2021/07/02 11:14:52;;;;;;;5.43;2.55;;;;;;;29.25;28.55;100295.69;5347036;26;20501;-84
2021/07/02 11:17:30;;;;;;;4.82;2.65;;;;;;;28.97;29.44;100300.69;5350365;26;20111;-84
2021/07/02 11:20:09;;;;;;;3.58;2.37;;;;;;;28.86;28.81;100296.19;5331841;26;20084;-84
2021/07/02 12:21:29;;;;;;;2.78;2.10;;;;;;;29.50;29.08;100264.63;5341616;26;20097;-85
2021/07/02 12:24:00;;;;;;;7.35;2.37;;;;;;;29.59;29.68;100263.81;5309878;27;20083;-85
2021/07/02 12:26:32;;;;;;;2.25;1.67;;;;;;;29.20;29.16;100267.16;5327346;27;20064;-84
2021/07/02 12:29:02;;;;;;;6.75;2.12;;;;;;;29.48;29.27;100262.06;5303261;27;20057;-83
2021/07/02 13:18:55;;;;;;;5.35;2.25;;;;;;;28.63;28.90;100246.75;5314113;26;20053;-84
2021/07/02 14:24:20;;;;;;;58.63;7.18;;;;;;;28.43;29.62;100267.31;5307067;26;20687;-85
2021/07/02 14:26:47;;;;;;;5.57;2.12;;;;;;;27.81;29.71;100260.63;5302095;27;20400;-85
2021/07/02 14:29:14;;;;;;;5.85;2.40;;;;;;;28.39;29.53;100263.13;5302377;27;20082;-85
2021/07/02 14:31:41;;;;;;;7.45;2.47;;;;;;;28.52;28.11;100263.84;5302686;27;20056;-84
2021/07/02 14:34:08;;;;;;;8.50;2.20;;;;;;;27.51;28.52;100250.41;5302199;27;20067;-85
2021/07/02 14:36:35;;;;;;;3.05;2.30;;;;;;;27.87;30.22;100261.13;5322100;27;20119;-84
2021/07/02 14:39:03;;;;;;;6.80;2.20;;;;;;;28.05;29.33;100263.19;5301768;27;20079;-84
2021/07/02 14:41:30;;;;;;;4.70;2.20;;;;;;;27.90;29.73;100266.28;5321219;27;20390;-83
2021/07/02 14:43:57;;;;;;;9.90;2.85;;;;;;;27.30;29.15;100261.03;5321398;27;20115;-84
2021/07/02 14:46:24;;;;;;;4.10;2.40;;;;;;;28.23;30.29;100257.28;5320959;27;20123;-84
2021/07/02 14:48:51;;;;;;;3.05;2.37;;;;;;;27.57;29.77;100263.41;5321711;27;20060;-84
2021/07/02 14:51:18;;;;;;;5.37;2.35;;;;;;;27.59;29.26;100263.28;5320745;27;20064;-84
2021/07/02 14:53:45;;;;;;;4.30;2.53;;;;;;;26.47;30.57;100263.69;5320244;27;20064;-84
2021/07/02 14:56:13;;;;;;;3.25;2.30;;;;;;;26.27;31.08;100263.38;5320825;27;20101;-83
2021/07/02 14:58:40;;;;;;;4.57;3.03;;;;;;;26.44;31.57;100267.50;5320974;27;20061;-85
2021/07/02 15:01:07;;;;;;;6.25;2.33;;;;;;;27.00;31.68;100260.66;5320655;27;20061;-83
2021/07/02 15:03:35;;;;;;;5.70;2.45;;;;;;;26.87;30.58;100264.31;5320284;27;20124;-84
2021/07/02 15:06:02;;;;;;;3.37;2.50;;;;;;;27.15;30.56;100270.34;5320658;27;20069;-83
2021/07/02 15:08:29;;;;;;;4.53;2.20;;;;;;;27.17;31.11;100260.25;5320158;27;20431;-83
2021/07/02 15:10:56;;;;;;;4.37;2.15;;;;;;;27.14;30.76;100253.22;5300835;27;20052;-84
2021/07/02 15:13:22;;;;;;;40.33;5.28;;;;;;;26.32;31.99;100256.75;5320256;27;20028;-85
2021/07/02 15:15:50;;;;;;;3.37;2.35;;;;;;;26.08;32.41;100251.34;5320396;27;20076;-84
2021/07/02 15:18:17;;;;;;;3.58;2.15;;;;;;;26.17;32.13;100262.31;5320265;27;20110;-85
2021/07/02 15:20:43;;;;;;;4.55;2.75;;;;;;;26.52;31.88;100258.88;5320473;27;20115;-85
2021/07/02 15:23:10;;;;;;;6.37;2.17;;;;;;;25.86;32.81;100262.81;5320539;27;20024;-84
2021/07/02 15:25:37;;;;;;;6.10;2.97;;;;;;;26.07;33.30;100260.41;5320120;27;20124;-84
2021/07/02 15:28:04;;;;;;;3.25;2.30;;;;;;;25.45;34.34;100263.87;5320759;27;20086;-84
2021/07/02 15:31:09;;;;;;;6.12;3.12;;;;;;;25.49;33.46;100263.56;5320247;27;20111;-86
2021/07/02 15:33:38;;;;;;;5.43;2.65;;;;;;;24.76;34.34;100264.03;5300613;27;20056;-86
2021/07/02 15:36:13;;;;;;;12.15;3.47;;;;;;;24.40;35.18;100267.31;5320240;27;20057;-86
2021/07/02 15:38:40;;;;;;;5.82;2.58;;;;;;;24.31;35.80;100259.88;5320167;27;20111;-87
2021/07/02 15:41:15;;;;;;;6.12;2.85;;;;;;;24.62;35.30;100256.94;5320604;27;20064;-86
2021/07/02 15:43:43;;;;;;;4.43;2.90;;;;;;;25.05;34.86;100250.47;5300441;27;20370;-85
2021/07/02 15:46:11;;;;;;;4.50;3.25;;;;;;;24.72;35.51;100261.69;5300457;27;20107;-85
2021/07/02 15:48:38;;;;;;;4.60;2.60;;;;;;;24.76;35.67;100250.59;5300041;27;20087;-86
2021/07/02 15:51:05;;;;;;;5.97;2.40;;;;;;;24.77;35.60;100259.56;5300565;27;20060;-86
2021/07/02 15:53:32;;;;;;;3.40;2.08;;;;;;;24.39;35.62;100258.41;5300563;27;20049;-85
2021/07/02 15:55:59;;;;;;;4.10;2.65;;;;;;;24.08;36.25;100269.41;5320754;27;20579;-85
2021/07/02 15:58:26;;;;;;;6.57;2.70;;;;;;;24.32;36.02;100272.31;5320106;27;20071;-85
2021/07/02 16:00:53;;;;;;;3.45;2.00;;;;;;;24.02;36.01;100265.28;5320189;27;20077;-84
2021/07/02 16:03:20;;;;;;;3.45;2.20;;;;;;;24.02;36.06;100263.47;5319996;27;20090;-85
2021/07/02 16:05:47;;;;;;;24.63;3.50;;;;;;;24.31;35.63;100273.28;5320216;27;20052;-85
2021/07/02 16:08:14;;;;;;;5.55;2.28;;;;;;;24.45;36.20;100263.41;5299738;27;20124;-85
2021/07/02 16:10:41;;;;;;;3.58;2.35;;;;;;;24.80;34.99;100262.03;5300402;27;20419;-85
2021/07/02 16:13:08;;;;;;;4.50;2.60;;;;;;;24.55;34.87;100270.84;5319817;27;20052;-85
2021/07/02 16:15:38;;;;;;;6.47;2.75;;;;;;;24.89;34.85;100262.28;5319755;27;20100;-85
2021/07/02 16:40:12;;;;;;;4.68;2.40;;;;;;;23.49;37.96;100267.66;5312363;26;20139;-84
2021/07/02 16:42:39;;;;;;;2.83;1.77;;;;;;;23.34;38.39;100268.59;5319586;27;20076;-85
2021/07/02 16:45:07;;;;;;;4.65;2.12;;;;;;;23.15;38.99;100266.19;5319716;27;20126;-85
2021/07/02 16:47:34;;;;;;;2.72;1.70;;;;;;;23.15;38.85;100276.00;5299991;27;20079;-86
2021/07/02 16:50:00;;;;;;;2.50;1.35;;;;;;;23.31;38.80;100266.09;5300806;27;20518;-85
2021/07/02 16:52:27;;;;;;;3.00;1.40;;;;;;;23.11;39.40;100267.31;5320611;27;20080;-85
2021/07/02 16:54:54;;;;;;;5.25;1.80;;;;;;;23.07;39.32;100273.81;5300656;27;20422;-84
2021/07/02 16:57:21;;;;;;;5.15;1.62;;;;;;;23.14;39.57;100277.84;5300563;27;20071;-85
2021/07/02 16:59:51;;;;;;;4.95;1.50;;;;;;;23.38;39.49;100271.94;5300555;27;20136;-85
2021/07/02 17:02:19;;;;;;;2.70;1.45;;;;;;;23.44;39.03;100276.94;5300460;27;20068;-84
2021/07/02 17:04:46;;;;;;;4.03;1.55;;;;;;;22.90;40.20;100278.31;5300477;27;20119;-85
2021/07/02 17:07:13;;;;;;;8.32;1.80;;;;;;;22.62;40.63;100275.53;5320496;27;20114;-85
2021/07/02 17:09:41;;;;;;;5.35;1.83;;;;;;;22.66;40.90;100283.28;5300637;27;20068;-85
2021/07/02 17:12:08;;;;;;;2.25;1.45;;;;;;;22.86;39.91;100263.38;5320360;27;20103;-84
2021/07/02 17:14:35;;;;;;;2.72;1.85;;;;;;;22.89;40.03;100273.06;5320436;27;20067;-85
2021/07/02 17:17:03;;;;;;;2.25;1.60;;;;;;;22.61;40.48;100263.09;5300898;27;20414;-85
2021/07/02 17:19:30;;;;;;;5.55;1.83;;;;;;;22.27;41.27;100267.69;5320275;27;20110;-84
2021/07/02 17:21:57;;;;;;;4.82;1.90;;;;;;;22.62;40.68;100275.53;5320475;27;20702;-85
2021/07/02 17:24:25;;;;;;;3.67;1.70;;;;;;;22.41;40.90;100280.28;5320548;27;20051;-85
2021/07/02 17:26:52;;;;;;;2.72;1.75;;;;;;;22.74;40.38;100284.69;5300880;27;20071;-85
2021/07/02 17:29:19;;;;;;;2.65;1.50;;;;;;;22.77;40.21;100273.78;5320183;27;20057;-85
2021/07/02 17:31:46;;;;;;;2.53;1.70;;;;;;;22.83;40.39;100282.31;5320420;27;20117;-84
2021/07/02 17:34:13;;;;;;;2.78;1.37;;;;;;;22.58;40.62;100287.34;5320447;27;20427;-85
2021/07/02 17:36:40;;;;;;;2.78;1.40;;;;;;;22.53;41.04;100286.75;5320286;27;20107;-84
2021/07/02 17:39:13;;;;;;;2.03;1.30;;;;;;;22.49;41.29;100285.22;5320233;27;20077;-85
2021/07/02 17:41:40;;;;;;;2.92;1.62;;;;;;;22.51;41.27;100294.87;5300803;27;20125;-84
2021/07/02 17:44:07;;;;;;;3.47;1.85;;;;;;;22.58;41.04;100293.56;5320168;27;20048;-84
2021/07/02 17:46:35;;;;;;;2.17;1.40;;;;;;;22.75;40.93;100292.59;5320718;27;20395;-85
2021/07/02 17:49:03;;;;;;;3.40;1.45;;;;;;;22.73;40.90;100290.97;5300755;27;20112;-85
2021/07/02 17:51:29;;;;;;;4.10;1.60;;;;;;;22.66;41.23;100291.31;5300388;27;20074;-85
2021/07/02 17:53:56;;;;;;;8.80;2.33;;;;;;;22.72;41.29;100294.59;5320274;27;20052;-85
2021/07/02 17:56:23;;;;;;;3.35;1.67;;;;;;;22.28;42.06;100303.34;5320484;27;20067;-86
2021/07/02 17:58:50;;;;;;;3.12;1.87;;;;;;;22.37;42.42;100298.34;5319828;27;20140;-84
2021/07/02 18:01:17;;;;;;;5.62;2.17;;;;;;;22.50;42.04;100297.63;5320433;27;20065;-84
2021/07/02 18:03:45;;;;;;;4.12;1.62;;;;;;;22.43;42.32;100298.00;5300866;27;20053;-84
2021/07/02 18:06:11;;;;;;;3.20;1.48;;;;;;;22.40;42.35;100295.47;5320195;27;20053;-84
2021/07/02 18:08:38;;;;;;;4.75;1.95;;;;;;;22.49;42.49;100296.78;5320535;26;20096;-85
2021/07/02 18:11:06;;;;;;;5.65;1.87;;;;;;;22.49;42.22;100303.94;5320886;27;20056;-84
2021/07/02 18:13:48;;;;;;;2.83;1.73;;;;;;;22.27;42.76;100301.63;5320909;27;20135;-84
2021/07/02 18:16:15;;;;;;;3.12;1.65;;;;;;;22.51;42.42;100312.78;5320104;27;20057;-84
2021/07/02 18:18:42;;;;;;;3.50;2.08;;;;;;;22.51;42.53;100310.09;5320930;27;20478;-84
2021/07/02 18:21:10;;;;;;;2.42;1.83;;;;;;;22.27;43.05;100302.50;5320255;27;20321;-84
2021/07/02 18:23:37;;;;;;;4.50;1.73;;;;;;;22.11;43.83;100306.91;5320191;27;20086;-83
2021/07/02 18:26:04;;;;;;;2.03;1.50;;;;;;;22.40;42.95;100302.66;5320443;27;20053;-83
2021/07/02 18:28:31;;;;;;;5.00;2.05;;;;;;;22.05;43.98;100301.91;5300694;27;20069;-84
2021/07/02 18:30:58;;;;;;;3.97;1.35;;;;;;;22.14;44.00;100304.94;5320785;27;20070;-83
2021/07/02 18:33:25;;;;;;;2.67;1.33;;;;;;;22.02;44.31;100304.75;5320406;27;20066;-85
2021/07/02 18:35:51;;;;;;;3.17;1.42;;;;;;;21.65;45.55;100304.94;5320091;27;20105;-84
2021/07/02 18:38:18;;;;;;;2.78;1.52;;;;;;;21.81;45.06;100307.66;5319995;27;20329;-85
2021/07/02 18:41:05;;;;;;;2.10;1.30;;;;;;;21.82;45.29;100304.00;5303645;27;20064;-84
2021/07/02 18:43:38;;;;;;;2.17;1.50;;;;;;;21.90;45.07;100306.28;5320452;27;20441;-83
2021/07/02 18:46:19;;;;;;;1.90;1.30;;;;;;;21.93;45.03;100306.97;5308746;27;20081;-84
2021/07/02 18:48:49;;;;;;;4.03;1.60;;;;;;;21.57;46.05;100308.97;5301017;27;20064;-85
2021/07/02 18:51:16;;;;;;;4.07;1.58;;;;;;;21.74;45.75;100309.78;5300238;27;20057;-85
2021/07/02 18:53:42;;;;;;;2.62;1.40;;;;;;;21.83;45.57;100310.25;5320149;27;20116;-85
2021/07/02 18:56:09;;;;;;;3.37;1.80;;;;;;;21.75;45.87;100318.66;5320041;27;20106;-84
2021/07/02 18:58:39;;;;;;;2.08;1.55;;;;;;;21.84;45.41;100309.28;5300465;27;20069;-84
2021/07/02 19:01:06;;;;;;;1.92;1.50;;;;;;;21.82;46.16;100308.50;5320019;27;20120;-84
2021/07/02 19:03:33;;;;;;;2.12;1.35;;;;;;;22.25;44.52;100315.09;5320266;27;20415;-84
2021/07/02 19:06:00;;;;;;;2.55;1.50;;;;;;;21.91;46.15;100318.69;5320234;27;20511;-85
2021/07/02 19:08:27;;;;;;;3.25;1.65;;;;;;;22.12;45.25;100316.66;5319914;27;20079;-85
2021/07/02 19:10:53;;;;;;;2.72;1.40;;;;;;;21.60;46.63;100330.19;5319616;27;20120;-84
2021/07/02 19:13:59;;;;;;;3.42;1.37;;;;;;;21.92;45.77;100332.00;5300549;27;20052;-85
2021/07/02 19:16:25;;;;;;;2.42;1.73;;;;;;;21.84;46.21;100328.03;5317992;27;20390;-84
2021/07/02 19:18:55;;;;;;;2.03;1.45;;;;;;;21.28;47.70;100327.34;5320145;27;20116;-84
2021/07/02 19:21:39;;;;;;;2.80;1.77;;;;;;;21.68;46.61;100331.50;5299958;27;20079;-85
2021/07/02 19:24:12;;;;;;;4.50;1.60;;;;;;;21.77;46.60;100330.16;5319949;27;20066;-84
2021/07/02 19:26:40;;;;;;;2.70;1.77;;;;;;;21.38;47.57;100343.78;5319687;27;20108;-85
2021/07/02 19:29:07;;;;;;;2.65;1.80;;;;;;;21.73;46.69;100332.09;5320172;27;20143;-85
2021/07/02 19:31:35;;;;;;;3.58;1.83;;;;;;;21.95;46.40;100331.84;5319889;27;20061;-84
2021/07/02 19:34:02;;;;;;;3.03;1.83;;;;;;;21.80;46.67;100332.66;5319929;27;20079;-84
2021/07/02 19:36:29;;;;;;;2.72;1.85;;;;;;;21.72;47.01;100338.41;5320478;27;20083;-84
2021/07/02 19:38:56;;;;;;;2.83;1.92;;;;;;;21.36;48.09;100345.66;5319829;27;20061;-84
2021/07/02 19:41:23;;;;;;;3.50;1.98;;;;;;;21.70;46.89;100339.44;5320112;27;20106;-85
2021/07/02 19:43:51;;;;;;;3.42;2.08;;;;;;;21.02;49.02;100353.56;5319545;27;20081;-84
2021/07/02 19:46:17;;;;;;;3.50;1.73;;;;;;;21.02;49.19;100345.53;5320418;27;20072;-84
2021/07/02 19:48:45;;;;;;;2.85;1.67;;;;;;;21.05;49.15;100348.06;5319859;27;20083;-85
2021/07/02 19:51:12;;;;;;;2.30;1.70;;;;;;;21.35;48.53;100354.59;5320032;27;20065;-84
2021/07/02 19:53:39;;;;;;;6.30;1.90;;;;;;;21.43;48.44;100361.31;5319824;27;20092;-84
2021/07/02 19:56:05;;;;;;;4.18;1.98;;;;;;;21.52;48.10;100358.16;5300116;27;20060;-84
2021/07/02 19:58:32;;;;;;;2.35;1.70;;;;;;;21.46;48.34;100358.50;5299823;27;20399;-84
2021/07/02 20:01:00;;;;;;;2.25;1.73;;;;;;;21.38;48.68;100357.16;5319787;27;20057;-84
2021/07/02 20:03:26;;;;;;;3.47;1.90;;;;;;;21.84;47.22;100350.28;5320133;27;20066;-84
2021/07/02 20:05:54;;;;;;;2.80;1.98;;;;;;;21.28;49.17;100360.25;5299961;27;20063;-84
2021/07/02 20:08:22;;;;;;;4.55;1.85;;;;;;;21.39;49.08;100365.09;5319983;27;20132;-84
2021/07/02 20:10:49;;;;;;;2.67;1.58;;;;;;;21.47;48.62;100362.91;5319784;27;20433;-85
2021/07/02 20:13:16;;;;;;;5.10;1.92;;;;;;;;;;5319937;27;20115;-85
2021/07/02 20:15:43;;;;;;;2.15;1.70;;;;;;;21.42;48.95;100358.75;5320428;27;20056;-84
2021/07/02 20:18:10;;;;;;;3.90;2.78;;;;;;;21.31;49.58;100364.59;5319729;27;20064;-84
2021/07/02 20:20:38;;;;;;;2.72;1.77;;;;;;;21.31;49.44;100362.78;5319681;27;20068;-85
2021/07/02 20:23:08;;;;;;;3.97;1.60;;;;;;;21.41;49.39;100368.53;5299803;27;20154;-84
2021/07/02 20:25:35;;;;;;;;;;;;;;;21.72;48.24;100364.28;5320414;27;20056;-84
2021/07/02 20:28:02;;;;;;;5.82;2.10;;;;;;;21.79;48.48;100357.66;5299667;27;20257;-84
2021/07/02 20:30:29;;;;;;;3.55;2.17;;;;;;;20.90;50.98;100361.31;5319925;27;20120;-84
2021/07/02 20:32:56;;;;;;;3.85;1.87;;;;;;;20.75;51.58;100370.94;5319668;27;20056;-84
2021/07/02 20:35:23;;;;;;;2.92;1.90;;;;;;;21.31;50.05;100364.59;5319830;27;20087;-84
2021/07/02 20:37:51;;;;;;;3.17;1.92;;;;;;;20.84;51.51;100358.00;5319412;27;20422;-84
2021/07/02 20:40:19;;;;;;;2.90;2.17;;;;;;;20.43;52.50;100365.28;5319691;27;20125;-84
2021/07/02 20:42:46;;;;;;;3.33;1.90;;;;;;;20.61;52.30;100366.25;5319771;27;20106;-84
2021/07/02 20:45:13;;;;;;;3.70;2.40;;;;;;;21.43;49.53;100364.00;5299847;27;20457;-85
2021/07/02 20:47:41;;;;;;;3.42;1.90;;;;;;;21.38;49.91;100358.00;5319849;27;20057;-84
2021/07/02 20:50:09;;;;;;;3.12;2.22;;;;;;;21.11;50.87;100360.25;5319856;27;20074;-84
2021/07/02 20:52:36;;;;;;;3.10;1.92;;;;;;;20.81;51.84;100367.97;5300270;27;20063;-84
2021/07/02 20:55:05;;;;;;;4.20;2.10;;;;;;;21.00;51.05;100370.59;5300072;27;20063;-83
2021/07/02 20:57:37;;;;;;;3.55;2.20;;;;;;;20.95;51.51;100369.97;5320362;27;20430;-83
2021/07/02 21:00:10;;;;;;;3.75;2.15;;;;;;;21.03;51.33;100371.34;5319923;27;20441;-83
2021/07/02 21:02:57;;;;;;;3.20;2.00;;;;;;;20.86;51.77;100369.47;5321146;27;20077;-83
2021/07/02 21:05:24;;;;;;;3.00;1.77;;;;;;;21.51;49.91;100371.63;5319777;27;20058;-83
2021/07/02 21:07:54;;;;;;;3.50;2.33;;;;;;;21.26;50.79;100372.81;5319559;27;20060;-83
2021/07/02 21:10:25;;;;;;;3.65;2.33;;;;;;;21.18;51.12;100377.72;5320469;27;20057;-83
2021/07/02 21:12:54;;;;;;;4.67;2.00;;;;;;;21.32;50.64;100366.31;5301158;27;20124;-83
2021/07/02 21:15:21;;;;;;;3.28;2.10;;;;;;;21.28;49.94;100376.28;5301936;27;20134;-84
2021/07/02 21:17:48;;;;;;;2.95;2.17;;;;;;;21.51;48.93;100375.16;5319709;27;20056;-84
2021/07/02 21:20:16;;;;;;;2.42;1.65;;;;;;;21.74;49.14;100373.13;5319766;27;20394;-85
2021/07/02 21:22:43;;;;;;;4.78;2.67;;;;;;;21.59;49.46;100381.91;5319553;27;20399;-84
2021/07/02 21:25:20;;;;;;;2.90;2.00;;;;;;;21.57;48.79;100376.66;5319371;27;20052;-86
2021/07/02 21:27:50;;;;;;;5.60;1.75;;;;;;;21.58;48.99;100378.38;5319976;27;20060;-84
2021/07/02 21:30:17;;;;;;;3.25;2.10;;;;;;;21.74;47.40;100381.12;5319357;27;20076;-83
2021/07/02 21:32:44;;;;;;;3.40;2.47;;;;;;;21.81;48.42;100379.84;5319272;27;20100;-84
2021/07/02 21:35:12;;;;;;;3.22;2.30;;;;;;;21.26;50.60;100374.62;5320306;27;20323;-84
2021/07/02 21:37:39;;;;;;;2.83;2.15;;;;;;;21.78;48.68;100385.38;5320460;27;20062;-85
2021/07/02 21:40:08;;;;;;;3.53;2.70;;;;;;;21.75;48.70;100381.03;5320722;27;20692;-84
2021/07/02 21:42:35;;;;;;;3.28;2.45;;;;;;;21.55;49.18;100379.41;5320302;27;20408;-84
2021/07/02 21:45:04;;;;;;;3.45;2.22;;;;;;;20.94;51.88;100377.13;5320247;27;20055;-85
2021/07/02 21:47:31;;;;;;;4.25;2.97;;;;;;;21.20;51.01;100378.47;5320175;27;20198;-84
2021/07/02 21:49:58;;;;;;;3.50;2.47;;;;;;;21.26;50.98;100380.84;5320304;27;20065;-84
2021/07/02 21:52:25;;;;;;;2.92;2.15;;;;;;;21.02;51.70;100390.09;5318466;27;20061;-84
2021/07/02 21:54:52;;;;;;;2.60;2.03;;;;;;;21.36;50.81;100389.31;5320340;27;20045;-84
2021/07/02 21:57:18;;;;;;;4.65;2.22;;;;;;;21.10;50.76;100382.56;5300898;27;20061;-84
2021/07/02 21:59:45;;;;;;;3.90;2.35;;;;;;;21.27;50.49;100385.25;5320272;27;20132;-85
2021/07/02 22:02:12;;;;;;;2.78;2.08;;;;;;;21.07;51.67;100382.72;5320268;27;20120;-84
2021/07/02 22:04:39;;;;;;;3.55;2.65;;;;;;;21.24;50.98;100377.41;5300604;27;20052;-84
2021/07/02 22:07:08;;;;;;;3.62;2.50;;;;;;;21.18;51.03;100387.50;5320255;27;20168;-85
2021/07/02 22:09:35;;;;;;;4.65;2.37;;;;;;;21.16;51.75;100390.28;5320271;27;20544;-84
2021/07/02 22:12:02;;;;;;;4.25;2.35;;;;;;;21.16;51.53;100382.25;5320332;27;20048;-84
2021/07/02 22:14:39;;;;;;;3.25;2.30;;;;;;;21.18;51.61;100384.84;5320369;27;20052;-84
2021/07/02 22:17:06;;;;;;;2.97;2.08;;;;;;;21.23;50.57;100377.47;5300674;27;20071;-84
2021/07/02 22:19:33;;;;;;;2.67;1.67;;;;;;;21.10;50.76;100386.09;5320450;27;20212;-84
2021/07/02 22:22:00;;;;;;;4.12;2.62;;;;;;;20.82;49.24;100378.59;5320564;27;20048;-84
2021/07/02 22:24:38;;;;;;;4.47;2.40;;;;;;;21.10;51.15;100382.56;5302065;27;20064;-84
2021/07/02 22:27:06;;;;;;;3.62;2.00;;;;;;;21.12;51.32;100372.69;5320488;27;20162;-83
2021/07/02 22:29:33;;;;;;;3.67;2.58;;;;;;;21.21;49.20;100380.22;5320447;27;20469;-84
2021/07/02 22:32:00;;;;;;;3.37;2.10;;;;;;;21.28;50.07;100378.97;5320291;27;20100;-84
2021/07/02 22:34:26;;;;;;;4.53;2.35;;;;;;;21.26;50.24;100388.00;5320389;27;20041;-85
2021/07/02 22:36:53;;;;;;;6.12;1.95;;;;;;;21.41;49.56;100379.22;5320792;27;20465;-84
2021/07/02 22:39:20;;;;;;;3.37;2.08;;;;;;;21.20;49.72;100372.28;5319985;27;20471;-84
2021/07/02 22:41:47;;;;;;;3.15;2.10;;;;;;;21.39;49.23;100383.81;5320508;27;20146;-83
2021/07/02 22:44:14;;;;;;;4.22;2.70;;;;;;;21.52;49.57;100382.22;5320009;27;20053;-84
2021/07/02 22:46:42;;;;;;;4.20;2.87;;;;;;;21.54;50.74;100382.16;5300123;27;20508;-84
2021/07/02 22:49:09;;;;;;;6.68;2.70;;;;;;;21.43;50.72;100382.69;5319879;27;20449;-85
2021/07/02 22:51:36;;;;;;;5.78;3.35;;;;;;;21.21;51.80;100382.91;5320202;27;20052;-84
2021/07/02 22:54:04;;;;;;;3.47;2.55;;;;;;;20.97;52.50;100384.09;5320156;27;20056;-83
2021/07/02 22:56:31;;;;;;;3.80;2.70;;;;;;;20.95;52.74;100389.53;5320347;27;20068;-85
2021/07/02 22:58:58;;;;;;;4.60;2.28;;;;;;;20.50;54.11;100388.09;5300101;27;20159;-84
